Time;durP1;ratioP1;P1;durP2;ratioP2;P2;SDS_P1;SDS_P2;PMS_P1;PMS_P2;Temp;Humidity;BMP_temperature;BMP_pressure;BME280_temperature;BME280_humidity;BME280_pressure;Samples;Min_cycle;Max_cycle;Signal;HPM_P1;HPM_P2
2023/10/10 00:00:24;;;;;;;18.93;7.77;;;;;;;-143.21;48.96;72468.81;5091664;28;20204;-77
2023/10/10 00:02:51;;;;;;;16.97;7.70;;;;;;;-143.21;49.06;72452.94;5092089;28;20235;-77
2023/10/10 00:05:30;;;;;;;13.53;7.83;;;;;;;-143.21;48.50;72441.03;5091035;28;20744;-78
2023/10/10 00:07:59;;;;;;;15.43;7.83;;;;;;;-143.21;48.52;72437.06;5091509;28;20257;-77
2023/10/10 00:10:27;;;;;;;16.87;8.13;;;;;;;-143.21;48.77;72441.03;5091319;28;20244;-77
2023/10/10 00:12:54;;;;;;;19.67;7.10;;;;;;;-143.21;49.03;72433.09;5091786;28;20239;-77
2023/10/10 00:15:22;;;;;;;13.33;6.60;;;;;;;-143.21;49.21;72427.16;5091344;28;20205;-78
2023/10/10 00:17:50;;;;;;;20.63;6.17;;;;;;;-143.21;49.08;72417.25;5092348;28;20201;-79
2023/10/10 00:20:22;;;;;;;13.67;6.30;;;;;;;-143.21;49.13;72415.25;5091649;28;20215;-80
2023/10/10 00:22:58;;;;;;;12.60;5.27;;;;;;;-143.21;48.76;72415.25;5092106;28;20683;-80
2023/10/10 00:25:30;;;;;;;12.37;5.47;;;;;;;-143.21;48.61;72403.34;5092560;28;20215;-81
2023/10/10 00:27:59;;;;;;;15.60;6.20;;;;;;;-143.21;48.71;72405.34;5092277;28;20202;-80
2023/10/10 00:30:33;;;;;;;12.60;5.90;;;;;;;-143.21;48.92;72397.41;5091430;28;20213;-80
2023/10/10 00:33:02;;;;;;;11.90;5.80;;;;;;;-143.21;48.68;72395.44;5088802;28;20630;-79
2023/10/10 00:35:32;;;;;;;13.03;5.37;;;;;;;-143.21;48.62;72391.47;5091706;28;20204;-79
2023/10/10 00:37:59;;;;;;;14.70;5.67;;;;;;;-143.21;48.97;72401.38;5088784;28;20326;-79
2023/10/10 00:40:30;;;;;;;15.37;5.73;;;;;;;-143.21;48.87;72393.44;5091326;28;20224;-79
2023/10/10 00:42:58;;;;;;;13.73;5.17;;;;;;;-143.21;48.51;72393.44;5091585;28;20655;-79
2023/10/10 00:45:30;;;;;;;12.10;4.63;;;;;;;-143.21;48.82;72411.28;5091476;28;20762;-79
2023/10/10 00:48:00;;;;;;;10.83;5.47;;;;;;;-143.21;48.74;72409.31;5091983;28;20193;-79
2023/10/10 00:50:27;;;;;;;12.93;5.50;;;;;;;-143.21;48.43;72401.38;5091447;28;20357;-78
2023/10/10 00:52:56;;;;;;;9.97;5.10;;;;;;;-143.21;48.54;72397.41;5091522;28;20209;-80
2023/10/10 00:55:26;;;;;;;10.27;4.67;;;;;;;-143.21;48.63;72397.41;5091067;28;20301;-79
2023/10/10 00:57:55;;;;;;;10.93;5.07;;;;;;;-143.21;48.33;72381.53;5091131;28;20236;-79
2023/10/10 01:00:25;;;;;;;9.93;4.87;;;;;;;-143.21;48.38;72393.44;5090489;28;20204;-79
2023/10/10 01:03:01;;;;;;;9.80;4.40;;;;;;;-143.21;48.66;72387.50;5091033;28;20278;-79
2023/10/10 01:05:39;;;;;;;15.40;4.30;;;;;;;-143.21;49.84;72383.53;5091043;28;20204;-79
2023/10/10 01:08:08;;;;;;;11.77;4.27;;;;;;;-143.21;50.75;72381.53;5090569;28;20685;-79
2023/10/10 01:10:42;;;;;;;12.30;3.97;;;;;;;-143.21;51.36;72353.78;5090511;28;20262;-79
2023/10/10 01:13:10;;;;;;;10.40;4.17;;;;;;;-143.21;51.51;72324.03;5091156;28;20195;-79
2023/10/10 01:15:37;;;;;;;14.53;5.30;;;;;;;-143.21;51.02;72284.38;5091960;28;20295;-81
2023/10/10 01:18:12;;;;;;;10.77;4.90;;;;;;;-143.21;50.41;72250.66;5091809;28;20659;-81
2023/10/10 01:20:46;;;;;;;15.33;4.03;;;;;;;-143.21;49.47;72207.03;5091579;28;20205;-81
2023/10/10 01:23:14;;;;;;;11.27;4.10;;;;;;;-143.21;49.18;72191.16;5090322;28;20193;-81
2023/10/10 01:25:45;;;;;;;14.00;3.83;;;;;;;-143.21;48.42;72161.41;5090285;28;20288;-81
2023/10/10 01:28:33;;;;;;;10.23;3.40;;;;;;;-143.21;47.81;72139.59;5090378;28;20593;-81
2023/10/10 01:31:05;;;;;;;13.40;3.93;;;;;;;-143.21;47.14;72129.69;5091949;28;20756;-81
2023/10/10 01:33:44;;;;;;;10.97;3.10;;;;;;;-143.21;47.09;72125.72;5088567;28;20196;-81
2023/10/10 01:36:12;;;;;;;11.03;3.20;;;;;;;-143.21;46.56;72111.84;5091569;28;20652;-81
2023/10/10 01:39:00;;;;;;;12.57;3.30;;;;;;;-143.21;46.64;72125.72;5092093;28;20243;-86
2023/10/10 01:41:38;;;;;;;8.70;3.70;;;;;;;-143.21;46.32;72125.72;5091736;28;20203;-86
2023/10/10 01:44:10;;;;;;;10.57;3.50;;;;;;;-143.21;46.06;72119.78;5091593;28;20224;-86
2023/10/10 01:46:37;;;;;;;12.70;3.75;;;;;;;-143.21;45.70;72131.69;5091833;28;20341;-86
2023/10/10 01:49:06;;;;;;;14.38;3.58;;;;;;;-143.21;45.16;72133.66;5091407;28;20216;-86
2023/10/10 01:51:37;;;;;;;11.05;3.80;;;;;;;-143.21;45.02;72121.75;5088275;28;20221;-86
2023/10/10 01:54:12;;;;;;;10.52;3.70;;;;;;;-143.21;44.88;72127.72;5088485;28;20672;-86
2023/10/10 01:56:39;;;;;;;10.23;3.50;;;;;;;-143.21;44.09;72143.56;5089502;28;20255;-86
2023/10/10 01:59:10;;;;;;;17.55;4.30;;;;;;;-143.21;43.90;72151.50;5091199;28;20204;-86
2023/10/10 02:01:38;;;;;;;22.02;3.67;;;;;;;-143.21;43.25;72161.41;5091407;28;20200;-82
2023/10/10 02:04:07;;;;;;;12.82;4.03;;;;;;;-143.21;43.59;72171.34;5090927;28;20205;-82
2023/10/10 02:06:37;;;;;;;14.25;3.97;;;;;;;-143.21;43.31;72185.22;5088029;28;20225;-81
2023/10/10 02:09:11;;;;;;;7.20;3.27;;;;;;;-143.21;43.85;72195.13;5091578;28;20204;-81
2023/10/10 02:11:49;;;;;;;14.10;3.63;;;;;;;-143.21;44.09;72201.09;5088273;28;20232;-80
2023/10/10 02:14:18;;;;;;;8.30;3.30;;;;;;;-143.21;44.00;72189.19;5091202;28;20630;-82
2023/10/10 02:16:48;;;;;;;11.27;3.30;;;;;;;-143.21;43.67;72183.22;5090846;28;20203;-81
2023/10/10 02:19:23;;;;;;;13.17;3.90;;;;;;;-143.21;43.94;72189.19;5090852;28;20600;-82
2023/10/10 02:22:03;;;;;;;10.80;3.53;;;;;;;-143.21;44.29;72207.03;5090970;28;20211;-82
2023/10/10 02:24:40;;;;;;;9.90;3.30;;;;;;;-143.21;44.56;72195.13;5091191;28;20200;-80
2023/10/10 02:27:06;;;;;;;9.33;3.60;;;;;;;-143.21;44.93;72218.94;5088179;28;20250;-80
2023/10/10 02:29:37;;;;;;;9.87;3.80;;;;;;;-143.21;44.90;72209.00;5090965;28;20207;-79
2023/10/10 02:32:12;;;;;;;9.40;3.40;;;;;;;-143.21;44.66;72201.09;5090890;28;20213;-80
2023/10/10 02:34:42;;;;;;;9.37;3.60;;;;;;;-143.21;44.44;72191.16;5088331;28;20207;-79
2023/10/10 02:37:41;;;;;;;11.77;3.83;;;;;;;-143.21;44.46;72187.19;5090536;28;20667;-80
2023/10/10 02:40:13;;;;;;;9.90;3.47;;;;;;;-143.21;44.33;72183.22;5090636;28;20219;-81
2023/10/10 02:42:40;;;;;;;12.23;3.77;;;;;;;-143.21;44.16;72173.31;5088327;28;20241;-81
2023/10/10 02:45:13;;;;;;;9.20;3.97;;;;;;;-143.21;44.51;72177.28;5089342;28;20216;-79
2023/10/10 02:47:45;;;;;;;14.67;5.33;;;;;;;-143.21;44.99;72165.38;5089396;28;20200;-79
2023/10/10 02:50:13;;;;;;;12.03;4.40;;;;;;;-143.21;45.91;72169.34;5088856;28;20200;-79
2023/10/10 02:52:45;;;;;;;11.53;4.50;;;;;;;-143.21;46.35;72165.38;5088850;28;20311;-79
2023/10/10 02:55:14;;;;;;;9.17;3.40;;;;;;;-143.21;46.82;72177.28;5088373;28;20209;-79
2023/10/10 02:57:41;;;;;;;8.30;3.20;;;;;;;-143.21;47.05;72169.34;5087977;28;20701;-79
2023/10/10 03:00:27;;;;;;;16.17;3.40;;;;;;;-143.21;47.18;72167.38;5087865;28;20630;-79
2023/10/10 03:02:55;;;;;;;8.90;3.70;;;;;;;-143.21;47.99;72161.41;5088655;28;20208;-79
2023/10/10 03:08:12;;;;;;;13.93;3.47;;;;;;;-143.21;48.80;72151.50;5088598;28;20223;-79
2023/10/10 03:10:41;;;;;;;9.57;4.63;;;;;;;-143.21;49.17;72155.47;5088568;28;20760;-79
2023/10/10 03:13:16;;;;;;;9.63;3.63;;;;;;;-143.21;49.71;72151.50;5088024;28;20235;-79
2023/10/10 03:15:53;;;;;;;7.00;3.25;;;;;;;-143.21;49.81;72145.56;5088666;28;20204;-79
2023/10/10 03:18:27;;;;;;;9.60;3.17;;;;;;;-143.21;49.71;72131.69;5087972;28;20334;-79
2023/10/10 03:21:13;;;;;;;7.27;3.70;;;;;;;-143.21;49.75;72129.69;5090346;28;20613;-79
2023/10/10 03:23:54;;;;;;;7.57;3.10;;;;;;;-143.21;50.09;72139.59;5089486;28;20257;-77
2023/10/10 03:26:34;;;;;;;7.10;3.30;;;;;;;-143.21;50.55;72141.59;5092333;28;20204;-78
2023/10/10 03:29:04;;;;;;;9.30;3.47;;;;;;;-143.21;50.70;72137.63;5089835;28;20207;-78
2023/10/10 03:31:41;;;;;;;7.07;3.55;;;;;;;-143.21;51.13;72141.59;5089410;28;20710;-79
2023/10/10 03:34:19;;;;;;;9.13;3.53;;;;;;;-143.21;51.07;72135.63;5089675;28;20730;-79
2023/10/10 03:37:05;;;;;;;9.87;3.47;;;;;;;-143.21;51.30;72145.56;5092479;28;20200;-79
2023/10/10 03:39:50;;;;;;;10.50;3.43;;;;;;;-143.21;51.55;72141.59;5089034;28;20658;-79
2023/10/10 05:24:35;;;;;;;15.90;4.53;;;;;;;-143.21;54.02;72195.13;5090115;28;20200;-76
2023/10/10 05:27:02;;;;;;;9.90;3.90;;;;;;;-143.21;54.31;72211.00;5087051;28;20224;-76
2023/10/10 05:29:33;;;;;;;12.87;4.50;;;;;;;-143.21;54.47;72211.00;5090587;28;20212;-76
2023/10/10 05:32:06;;;;;;;7.40;4.00;;;;;;;-143.21;54.95;72236.78;5086833;28;20332;-76
2023/10/10 05:34:37;;;;;;;10.13;4.47;;;;;;;-143.21;54.96;72238.75;5086989;28;20196;-76
2023/10/10 05:37:04;;;;;;;10.73;4.43;;;;;;;-143.21;55.08;72248.66;5089889;28;20205;-76
2023/10/10 05:39:32;;;;;;;17.63;4.00;;;;;;;-143.21;55.43;72258.59;5090193;28;20301;-76
2023/10/10 05:42:01;;;;;;;14.03;4.23;;;;;;;-143.21;55.47;72256.59;5086688;28;20204;-76
2023/10/10 05:44:29;;;;;;;11.27;4.10;;;;;;;-143.21;55.17;72256.59;5089547;28;20615;-77
2023/10/10 05:46:56;;;;;;;11.57;3.80;;;;;;;-143.21;55.40;72268.50;5088735;28;20201;-77
2023/10/10 05:49:23;;;;;;;11.77;4.00;;;;;;;-143.21;55.43;72266.53;5089850;28;20218;-77
2023/10/10 05:51:52;;;;;;;9.47;4.30;;;;;;;-143.21;55.34;72270.50;5089940;28;20228;-77
2023/10/10 05:54:19;;;;;;;15.27;4.57;;;;;;;-143.21;55.48;72266.53;5089288;28;20731;-76
2023/10/10 05:56:46;;;;;;;12.90;3.70;;;;;;;-143.21;55.38;72262.56;5089707;28;20283;-76
2023/10/10 05:59:13;;;;;;;22.10;4.80;;;;;;;-143.21;54.86;72240.75;5088759;28;20212;-77
2023/10/10 06:01:39;;;;;;;16.10;4.73;;;;;;;-143.21;54.59;72224.88;5088824;28;20212;-78
2023/10/10 06:04:07;;;;;;;14.77;4.17;;;;;;;-143.21;54.59;72212.97;5088958;28;20197;-78
2023/10/10 06:06:34;;;;;;;14.65;4.18;;;;;;;-143.21;54.59;72207.03;5089328;28;20238;-77
2023/10/10 06:09:04;;;;;;;17.33;4.33;;;;;;;-143.21;54.26;72197.13;5090253;28;20196;-77
2023/10/10 06:11:34;;;;;;;11.98;4.10;;;;;;;-143.21;53.97;72193.16;5086362;28;20199;-77
2023/10/10 06:14:01;;;;;;;9.27;4.10;;;;;;;-143.21;54.31;72197.13;5086298;28;20229;-77
2023/10/10 06:16:28;;;;;;;14.90;4.37;;;;;;;-143.21;53.91;72189.19;5089162;28;20625;-77
2023/10/10 06:18:55;;;;;;;11.40;4.00;;;;;;;-143.21;54.44;72207.03;5089258;28;20257;-77
2023/10/10 06:21:21;;;;;;;12.60;4.20;;;;;;;-143.21;54.56;72209.00;5088923;28;20213;-77
2023/10/10 06:23:49;;;;;;;20.10;4.47;;;;;;;-143.21;54.33;72199.09;5089299;28;20211;-77
2023/10/10 06:26:21;;;;;;;15.47;4.07;;;;;;;-143.21;54.06;72193.16;5088452;28;20353;-77
2023/10/10 06:28:53;;;;;;;12.37;4.67;;;;;;;-143.21;54.35;72203.06;5089381;28;20587;-78
2023/10/10 06:31:20;;;;;;;14.60;4.50;;;;;;;-143.21;54.59;72207.03;5089038;28;20212;-78
2023/10/10 06:33:49;;;;;;;8.30;4.07;;;;;;;-143.21;54.89;72218.94;5088778;28;20252;-78
2023/10/10 06:36:37;;;;;;;11.10;4.23;;;;;;;-143.21;54.47;72207.03;5088892;28;20334;-78
2023/10/10 06:39:20;;;;;;;8.77;3.90;;;;;;;-143.21;54.23;72195.13;5085794;28;20699;-78
2023/10/10 06:41:50;;;;;;;12.93;4.17;;;;;;;-143.21;54.41;72195.13;5088629;28;20200;-78
2023/10/10 06:44:31;;;;;;;15.37;4.23;;;;;;;-143.21;54.33;72191.16;5088830;28;20651;-78
2023/10/10 06:46:59;;;;;;;10.93;3.87;;;;;;;-143.21;53.85;72189.19;5089379;28;20200;-77
2023/10/10 06:49:43;;;;;;;15.03;4.30;;;;;;;-143.21;54.27;72193.16;5088628;28;20246;-76
2023/10/10 06:52:14;;;;;;;12.80;4.07;;;;;;;-143.21;53.81;72189.19;5085918;28;20297;-76
2023/10/10 06:54:44;;;;;;;11.23;4.00;;;;;;;-143.21;53.98;72185.22;5088734;28;20232;-76
2023/10/10 06:57:17;;;;;;;16.27;4.70;;;;;;;-143.21;54.03;72193.16;5088336;28;20280;-78
2023/10/10 06:59:44;;;;;;;11.07;4.23;;;;;;;-143.21;54.04;72175.31;5088313;28;20197;-77
2023/10/10 07:02:20;;;;;;;11.23;3.90;;;;;;;-143.21;53.88;72175.31;5088083;28;20219;-77
2023/10/10 07:04:52;;;;;;;8.73;4.03;;;;;;;-143.21;54.54;72191.16;5088667;28;20196;-77
2023/10/10 07:07:20;;;;;;;11.63;4.33;;;;;;;-143.21;54.67;72191.16;5088020;28;20281;-77
2023/10/10 07:09:57;;;;;;;11.85;4.28;;;;;;;-143.21;54.29;72185.22;5088697;28;20217;-77
2023/10/10 07:12:28;;;;;;;14.23;4.63;;;;;;;-143.21;54.30;72177.28;5087913;28;20324;-78
2023/10/10 07:14:56;;;;;;;8.20;4.30;;;;;;;-143.21;53.81;72161.41;5088420;28;20200;-77
2023/10/10 07:17:27;;;;;;;16.50;4.80;;;;;;;-143.21;53.80;72153.47;5088095;28;20205;-76
2023/10/10 07:22:37;;;;;;;9.27;3.97;;;;;;;-143.21;54.27;72179.25;5085994;28;20337;-77
2023/10/10 07:25:07;;;;;;;9.07;4.25;;;;;;;-143.21;54.64;72191.16;5087495;28;20200;-76
2023/10/10 07:27:36;;;;;;;12.23;4.10;;;;;;;-143.21;54.30;72169.34;5084170;28;20224;-76
2023/10/10 07:30:16;;;;;;;12.10;4.50;;;;;;;-143.21;54.22;72165.38;5088695;28;20200;-76
2023/10/10 07:32:43;;;;;;;12.43;4.17;;;;;;;-143.21;54.09;72153.47;5085902;28;20204;-76
2023/10/10 07:35:15;;;;;;;11.63;4.10;;;;;;;-143.21;54.39;72153.47;5087075;28;20433;-76
2023/10/10 07:37:43;;;;;;;12.27;4.10;;;;;;;-143.21;54.83;72151.50;5087436;28;20283;-77
2023/10/10 07:40:28;;;;;;;11.63;4.40;;;;;;;-143.21;54.77;72141.59;5087289;28;20661;-77
2023/10/10 07:42:59;;;;;;;12.98;4.78;;;;;;;-143.21;54.41;72135.63;5088497;28;20200;-77
2023/10/10 07:45:29;;;;;;;11.52;4.30;;;;;;;-143.21;54.70;72147.53;5088357;28;20983;-76
2023/10/10 07:50:47;;;;;;;17.17;4.47;;;;;;;-143.21;55.04;72149.53;5087367;28;20674;-77
2023/10/10 07:53:14;;;;;;;10.73;4.43;;;;;;;-143.21;54.72;72151.50;5087799;28;20208;-77
2023/10/10 07:55:53;;;;;;;10.63;4.65;;;;;;;-143.21;54.93;72153.47;5087931;28;20204;-77
2023/10/10 07:58:23;;;;;;;8.60;4.13;;;;;;;-143.21;55.06;72159.44;5087814;28;20262;-77
2023/10/10 08:00:52;;;;;;;11.63;4.53;;;;;;;-143.21;55.24;72159.44;5088011;28;20207;-78
2023/10/10 08:03:20;;;;;;;11.65;4.10;;;;;;;-143.21;54.79;72131.69;5087570;28;20196;-75
2023/10/10 08:05:50;;;;;;;15.13;4.53;;;;;;;-143.21;54.83;72145.56;5087612;28;20655;-75
2023/10/10 08:08:17;;;;;;;13.30;4.90;;;;;;;-143.21;54.73;72139.59;5087348;28;20203;-75
2023/10/10 08:10:49;;;;;;;13.83;4.77;;;;;;;-143.21;54.62;72129.69;5090410;28;20211;-76
2023/10/10 08:13:16;;;;;;;12.75;4.93;;;;;;;-143.21;54.59;72137.63;5091080;28;20311;-77
2023/10/10 08:15:56;;;;;;;13.00;4.45;;;;;;;-143.21;54.74;72139.59;5091444;28;20205;-77
2023/10/10 08:21:09;;;;;;;11.77;5.07;;;;;;;-143.21;54.90;72139.59;5091408;28;20212;-77
2023/10/10 08:23:42;;;;;;;14.95;4.97;;;;;;;-143.21;55.16;72151.50;5091170;28;20201;-77
2023/10/10 08:26:10;;;;;;;9.75;4.47;;;;;;;-143.21;55.17;72137.63;5090873;28;20279;-76
2023/10/10 08:28:37;;;;;;;17.00;4.95;;;;;;;-143.21;55.09;72133.66;5091886;28;20227;-76
2023/10/10 08:31:05;;;;;;;13.05;5.30;;;;;;;-143.21;54.59;72115.81;5091013;28;20196;-77
2023/10/10 08:33:32;;;;;;;20.85;5.43;;;;;;;-143.21;53.77;72099.94;5088076;28;20220;-76
2023/10/10 08:36:00;;;;;;;20.60;5.50;;;;;;;-143.21;53.54;72086.06;5087762;28;20205;-76
2023/10/10 08:38:27;;;;;;;19.38;5.10;;;;;;;-143.21;53.40;72072.19;5090491;28;20224;-77
2023/10/10 08:41:08;;;;;;;14.10;5.25;;;;;;;-143.21;53.07;72050.38;5091124;28;20602;-79
2023/10/10 08:43:45;;;;;;;17.13;5.13;;;;;;;-143.21;52.92;72034.50;5090869;28;20698;-76
2023/10/10 08:46:15;;;;;;;14.48;5.65;;;;;;;-143.21;52.66;72042.44;5090641;28;20208;-77
2023/10/10 08:48:42;;;;;;;18.80;5.78;;;;;;;-143.21;53.00;72044.41;5090470;28;20604;-78
2023/10/10 08:51:10;;;;;;;17.08;5.95;;;;;;;-143.21;53.01;72058.31;5090422;28;20204;-77
2023/10/10 08:53:39;;;;;;;16.92;5.65;;;;;;;-143.21;53.01;72062.25;5090610;28;20231;-77
2023/10/10 08:56:07;;;;;;;14.35;5.22;;;;;;;-143.21;52.91;72056.31;5090495;28;20198;-77
2023/10/10 08:58:36;;;;;;;16.05;5.38;;;;;;;-143.21;53.26;72062.25;5087593;28;20571;-77
2023/10/10 09:01:05;;;;;;;18.85;5.10;;;;;;;-143.21;53.33;72070.19;5087625;28;20627;-76
2023/10/10 09:03:34;;;;;;;18.88;4.63;;;;;;;-143.21;53.61;72086.06;5087296;28;20744;-76
2023/10/10 09:06:16;;;;;;;18.58;5.43;;;;;;;-143.21;53.63;72090.03;5090195;28;20350;-76
2023/10/10 09:08:49;;;;;;;11.65;5.60;;;;;;;-143.21;53.83;72105.91;5090385;28;20205;-77
2023/10/10 09:11:16;;;;;;;11.90;5.65;;;;;;;-143.21;54.14;72115.81;5090279;28;20670;-76
2023/10/10 09:13:53;;;;;;;14.02;5.18;;;;;;;-143.21;54.28;72117.78;5090513;28;20224;-78
2023/10/10 09:16:41;;;;;;;8.60;4.80;;;;;;;-143.21;54.33;72115.81;5090039;28;21543;-77
2023/10/10 09:19:10;;;;;;;10.40;5.32;;;;;;;-143.21;54.46;72115.81;5089908;28;20633;-77
2023/10/10 09:21:51;;;;;;;10.57;4.90;;;;;;;-143.21;54.64;72129.69;5089868;28;20244;-76
2023/10/10 09:24:28;;;;;;;12.63;5.05;;;;;;;-143.21;54.84;72127.72;5089752;28;20231;-78
2023/10/10 09:26:58;;;;;;;8.80;4.60;;;;;;;-143.21;54.50;72125.72;5090281;28;20283;-77
2023/10/10 09:29:42;;;;;;;13.23;4.53;;;;;;;-143.21;54.46;72115.81;5090308;28;20212;-76
2023/10/10 09:32:13;;;;;;;10.77;4.45;;;;;;;-143.21;54.32;72101.94;5087307;28;20274;-76
2023/10/10 09:34:41;;;;;;;12.25;4.60;;;;;;;-143.21;54.23;72086.06;5089575;28;20227;-77
2023/10/10 09:37:13;;;;;;;13.43;4.57;;;;;;;-143.21;54.16;72068.22;5089367;28;20863;-76
2023/10/10 09:39:42;;;;;;;10.85;4.03;;;;;;;-143.21;53.32;72064.25;5089964;28;20578;-76
2023/10/10 09:42:27;;;;;;;8.10;3.92;;;;;;;-143.21;53.02;72050.38;5089252;28;20562;-77
2023/10/10 09:45:25;;;;;;;11.68;4.28;;;;;;;-143.21;52.93;72056.31;5089869;28;20215;-77
2023/10/10 09:47:56;;;;;;;5.10;3.58;;;;;;;-143.21;52.74;72056.31;5089370;28;20380;-76
2023/10/10 09:50:34;;;;;;;11.20;4.22;;;;;;;-143.21;52.65;72040.44;5088568;28;20665;-77
2023/10/10 09:53:02;;;;;;;9.73;3.85;;;;;;;-143.21;52.39;72052.34;5088873;28;20200;-77
2023/10/10 09:55:42;;;;;;;8.45;3.50;;;;;;;-143.21;52.80;72042.44;5089364;28;20203;-77
2023/10/10 09:58:26;;;;;;;10.02;3.53;;;;;;;-143.21;52.86;72046.41;5086549;28;20196;-77
2023/10/10 10:01:02;;;;;;;8.98;3.95;;;;;;;-143.21;52.36;72018.63;5089236;28;20261;-77
2023/10/10 10:03:36;;;;;;;21.40;4.40;;;;;;;-143.21;51.96;72002.78;5089313;28;20192;-77
2023/10/10 10:09:08;;;;;;;14.35;4.38;;;;;;;-143.21;51.22;71959.16;5086920;28;20216;-76
2023/10/10 10:11:46;;;;;;;16.50;4.18;;;;;;;-143.21;51.46;71959.16;5086179;28;20209;-77
2023/10/10 10:14:25;;;;;;;11.45;3.92;;;;;;;-143.21;51.54;71955.19;5086801;28;20224;-76
2023/10/10 10:17:03;;;;;;;12.38;4.07;;;;;;;-143.21;51.08;71953.19;5089537;28;20593;-75
2023/10/10 10:19:34;;;;;;;6.53;3.40;;;;;;;-143.21;50.42;71949.25;5088285;28;20287;-75
2023/10/10 10:22:08;;;;;;;8.60;3.70;;;;;;;-143.21;50.63;71953.19;5085875;28;20769;-76
2023/10/10 10:24:56;;;;;;;9.52;3.95;;;;;;;-143.21;50.53;71949.25;5086578;28;20211;-76
2023/10/10 10:27:31;;;;;;;5.07;3.25;;;;;;;-143.21;50.63;71955.19;5088882;28;20337;-76
2023/10/10 10:30:09;;;;;;;13.95;3.95;;;;;;;-143.21;50.99;71965.09;5089460;28;20211;-76
2023/10/10 10:32:41;;;;;;;7.93;3.28;;;;;;;-143.21;51.10;71971.06;5087712;28;20193;-77
2023/10/10 10:35:13;;;;;;;10.98;4.38;;;;;;;-143.21;51.28;71971.06;5087093;28;20224;-77
2023/10/10 10:37:42;;;;;;;7.03;3.55;;;;;;;-143.21;51.12;71963.13;5088387;28;20261;-76
2023/10/10 10:40:24;;;;;;;8.70;3.67;;;;;;;-143.21;51.44;71971.06;5088244;28;20258;-77
2023/10/10 10:42:51;;;;;;;10.43;3.40;;;;;;;-143.21;51.79;71988.91;5088941;28;20197;-77
2023/10/10 10:45:34;;;;;;;9.30;3.90;;;;;;;-143.21;52.08;71990.88;5088342;28;20674;-77
2023/10/10 10:48:06;;;;;;;9.23;3.92;;;;;;;-143.21;51.89;71984.94;5085478;28;20307;-75
2023/10/10 10:50:40;;;;;;;7.03;3.53;;;;;;;-143.21;52.13;71994.84;5085239;28;20208;-76
2023/10/10 10:53:20;;;;;;;9.00;3.92;;;;;;;-143.21;52.10;72000.78;5085892;28;20231;-76
2023/10/10 10:56:06;;;;;;;6.22;3.22;;;;;;;-143.21;52.16;71996.81;5087357;28;20669;-77
2023/10/10 10:58:47;;;;;;;6.97;3.78;;;;;;;-143.21;51.75;71984.94;5085394;28;20192;-76
2023/10/10 11:01:16;;;;;;;6.72;3.55;;;;;;;-143.21;51.71;71992.88;5086497;28;20215;-77
2023/10/10 11:03:44;;;;;;;11.27;3.60;;;;;;;-143.21;51.76;71994.84;5088489;28;20240;-78
2023/10/10 11:06:14;;;;;;;8.27;3.22;;;;;;;-143.21;51.53;71986.91;5087662;28;20240;-75
2023/10/10 11:08:54;;;;;;;9.13;3.58;;;;;;;-143.21;51.49;71992.88;5088571;28;20199;-77
2023/10/10 11:11:36;;;;;;;10.38;3.70;;;;;;;-143.21;51.54;72002.78;5088551;28;20223;-77
2023/10/10 11:14:09;;;;;;;8.55;3.22;;;;;;;-143.21;51.72;72002.78;5085428;28;20220;-76
2023/10/10 11:16:45;;;;;;;7.82;3.55;;;;;;;-143.21;51.88;72008.72;5085976;28;20325;-76
2023/10/10 11:19:25;;;;;;;6.78;3.50;;;;;;;-143.21;51.74;72000.78;5088363;28;20584;-78
2023/10/10 11:21:53;;;;;;;7.88;4.10;;;;;;;-143.21;51.78;72004.75;5088356;28;20243;-78
2023/10/10 11:24:29;;;;;;;10.30;4.32;;;;;;;-143.21;51.62;71996.81;5087736;28;20260;-77
2023/10/10 11:27:13;;;;;;;11.05;4.40;;;;;;;-143.21;51.63;71992.88;5088406;28;20227;-76
2023/10/10 11:29:44;;;;;;;10.27;4.63;;;;;;;-143.21;51.31;71986.91;5088414;28;20215;-76
2023/10/10 11:32:13;;;;;;;8.57;3.65;;;;;;;-143.21;51.03;71984.94;5087873;28;20200;-77
2023/10/10 11:34:45;;;;;;;9.90;3.92;;;;;;;-143.21;51.30;71998.81;5088167;28;20224;-76
2023/10/10 11:37:20;;;;;;;8.18;4.03;;;;;;;-143.21;50.99;71984.94;5087780;28;20279;-76
2023/10/10 11:39:57;;;;;;;21.02;4.50;;;;;;;-143.21;51.06;71978.97;5087895;28;20630;-77
2023/10/10 11:42:27;;;;;;;9.30;4.43;;;;;;;-143.21;50.79;71967.09;5087416;28;20204;-77
2023/10/10 11:45:01;;;;;;;8.82;4.15;;;;;;;-143.21;50.49;71953.19;5091684;28;21275;-77
2023/10/10 11:47:31;;;;;;;10.75;3.83;;;;;;;-143.21;50.75;71969.06;5092451;28;20607;-76
2023/10/10 11:50:08;;;;;;;6.38;3.60;;;;;;;-143.21;50.81;71975.00;5092686;28;20197;-76
2023/10/10 11:52:35;;;;;;;10.23;3.60;;;;;;;-143.21;51.08;71986.91;5092316;28;20237;-77
2023/10/10 11:55:07;;;;;;;8.63;4.20;;;;;;;-143.21;51.13;71990.88;5091982;28;20767;-77
2023/10/10 11:57:35;;;;;;;9.65;4.18;;;;;;;-143.21;50.96;71971.06;5091934;28;20201;-78
2023/10/10 12:00:07;;;;;;;9.43;4.18;;;;;;;-143.21;50.70;71963.13;5092141;28;20204;-77
2023/10/10 12:02:40;;;;;;;8.27;4.10;;;;;;;-143.21;50.77;71971.06;5091180;28;20297;-77
2023/10/10 12:05:35;;;;;;;10.88;3.95;;;;;;;-143.21;50.94;71977.00;5092020;28;20231;-82
2023/10/10 12:08:05;;;;;;;10.55;4.57;;;;;;;-143.21;51.07;71988.91;5093928;28;20201;-83
2023/10/10 12:10:47;;;;;;;8.18;3.72;;;;;;;-143.21;50.83;71984.94;5090503;28;20277;-81
2023/10/10 12:13:25;;;;;;;12.45;4.18;;;;;;;-143.21;50.56;71971.06;5092045;28;20199;-81
2023/10/10 12:15:52;;;;;;;11.68;4.35;;;;;;;-143.21;50.22;71967.09;5093905;28;20273;-81
2023/10/10 12:18:20;;;;;;;10.48;3.75;;;;;;;-143.21;50.08;71967.09;5092942;28;20203;-80
2023/10/10 12:20:46;;;;;;;8.85;3.67;;;;;;;-143.21;50.05;71975.00;5093468;28;20207;-82
2023/10/10 12:23:13;;;;;;;15.43;5.65;;;;;;;-143.21;50.30;71967.09;5093079;28;20216;-81
2023/10/10 12:25:42;;;;;;;13.30;5.13;;;;;;;-143.21;49.99;71965.09;5093054;28;20209;-82
2023/10/10 12:28:09;;;;;;;10.63;3.88;;;;;;;-143.21;49.79;71961.13;5092616;28;20258;-81
2023/10/10 12:30:40;;;;;;;11.30;3.60;;;;;;;-143.21;49.87;71969.06;5092836;28;20203;-81
2023/10/10 12:33:08;;;;;;;6.60;3.55;;;;;;;-143.21;49.76;71961.13;5093046;28;20281;-82
2023/10/10 12:35:47;;;;;;;6.97;3.45;;;;;;;-143.21;49.34;71963.13;5089580;28;20281;-81
2023/10/10 12:38:20;;;;;;;13.25;3.88;;;;;;;-143.21;49.40;71965.09;5090022;28;20675;-82
2023/10/10 12:40:52;;;;;;;10.13;3.22;;;;;;;-143.21;49.05;71961.13;5092161;28;20679;-82
2023/10/10 12:43:23;;;;;;;10.85;3.78;;;;;;;-143.21;48.93;71947.25;5091509;28;20211;-82
2023/10/10 12:46:00;;;;;;;12.68;4.07;;;;;;;-143.21;48.95;71951.22;5092040;28;20212;-82
2023/10/10 12:48:31;;;;;;;10.23;3.90;;;;;;;-143.21;49.19;71961.13;5091604;28;20731;-82
2023/10/10 12:51:01;;;;;;;12.90;4.25;;;;;;;-143.21;49.18;71955.19;5091929;28;20204;-81
2023/10/10 12:53:30;;;;;;;16.67;4.82;;;;;;;-143.21;49.39;71953.19;5092264;28;20197;-81
2023/10/10 12:56:02;;;;;;;14.90;4.28;;;;;;;-143.21;49.71;71963.13;5091670;28;20428;-81
2023/10/10 12:58:30;;;;;;;9.20;4.15;;;;;;;-143.21;50.02;71967.09;5090857;28;20235;-83
2023/10/10 13:01:05;;;;;;;15.98;4.53;;;;;;;-143.21;49.68;71951.22;5091794;28;20232;-82
2023/10/10 13:03:32;;;;;;;15.23;4.00;;;;;;;-143.21;49.91;71959.16;5088427;28;20575;-82
2023/10/10 13:06:00;;;;;;;12.85;4.43;;;;;;;-143.21;50.06;71965.09;5090000;28;20243;-82
2023/10/10 13:08:38;;;;;;;12.40;4.35;;;;;;;-143.21;50.12;71967.09;5090870;28;20201;-83
2023/10/10 13:11:12;;;;;;;18.75;4.82;;;;;;;-143.21;49.97;71959.16;5091068;28;20205;-81
2023/10/10 13:13:45;;;;;;;10.20;4.47;;;;;;;-143.21;49.99;71961.13;5088774;28;20303;-82
2023/10/10 13:16:23;;;;;;;14.15;4.63;;;;;;;-143.21;50.05;71963.13;5091256;28;20259;-83
2023/10/10 13:18:50;;;;;;;17.83;4.85;;;;;;;-143.21;49.95;71959.16;5091120;28;20204;-82
2023/10/10 13:21:19;;;;;;;13.23;3.90;;;;;;;-143.21;49.73;71951.22;5090054;28;20258;-82
2023/10/10 13:23:46;;;;;;;11.93;4.30;;;;;;;-143.21;49.76;71947.25;5090759;28;20197;-84
2023/10/10 13:26:16;;;;;;;11.00;4.28;;;;;;;-143.21;49.63;71943.28;5090256;28;20205;-84
2023/10/10 13:28:45;;;;;;;13.68;4.88;;;;;;;-143.21;50.01;71949.25;5090679;28;20204;-82
2023/10/10 13:31:13;;;;;;;12.30;4.85;;;;;;;-143.21;50.17;71951.22;5089965;28;20750;-84